Time;durP1;ratioP1;P1;durP2;ratioP2;P2;SDS_P1;SDS_P2;PMS_P1;PMS_P2;Temp;Humidity;BMP_temperature;BMP_pressure;BME280_temperature;BME280_humidity;BME280_pressure;Samples;Min_cycle;Max_cycle;Signal;HPM_P1;HPM_P2
2023/05/06 00:02:04;;;;;;;13.67;11.30;;;11.80;99.90;;;;;;5057733;28;20461;-80
2023/05/06 00:04:31;;;;;;;15.30;11.47;;;11.90;99.90;;;;;;5051768;28;20475;-80
2023/05/06 00:06:58;;;;;;;13.67;10.80;;;11.90;99.90;;;;;;5062430;28;20991;-77
2023/05/06 00:09:25;;;;;;;14.13;11.10;;;11.90;99.90;;;;;;5054709;28;20485;-78
2023/05/06 00:11:51;;;;;;;15.60;11.40;;;11.90;99.90;;;;;;5054196;28;20462;-78
2023/05/06 00:14:18;;;;;;;15.00;11.67;;;11.90;99.90;;;;;;5052467;28;20470;-78
2023/05/06 00:16:45;;;;;;;15.00;12.27;;;11.80;99.90;;;;;;5062769;28;20452;-78
2023/05/06 00:19:13;;;;;;;15.87;12.60;;;11.80;99.90;;;;;;5066868;28;20887;-80
2023/05/06 00:21:40;;;;;;;16.67;11.20;;;11.80;99.90;;;;;;5061125;28;20464;-78
2023/05/06 00:24:07;;;;;;;14.53;11.47;;;11.80;99.90;;;;;;5057811;28;20561;-78
2023/05/06 00:26:34;;;;;;;14.70;12.40;;;11.70;99.90;;;;;;5058280;28;20456;-81
2023/05/06 00:29:00;;;;;;;16.80;13.30;;;11.70;99.90;;;;;;5056251;28;21003;-78
2023/05/06 00:31:27;;;;;;;15.47;12.07;;;11.60;99.90;;;;;;5059302;28;20458;-79
2023/05/06 00:33:54;;;;;;;18.20;12.50;;;11.50;99.90;;;;;;5056575;28;20470;-81
2023/05/06 00:36:22;;;;;;;18.83;12.93;;;11.50;99.90;;;;;;5055945;28;20982;-77
2023/05/06 00:38:49;;;;;;;17.67;13.20;;;11.50;99.90;;;;;;5065829;28;20453;-79
2023/05/06 00:41:16;;;;;;;15.13;12.00;;;11.40;99.90;;;;;;5055514;28;20462;-81
2023/05/06 00:43:43;;;;;;;13.87;11.70;;;11.40;99.90;;;;;;5057055;28;20474;-80
2023/05/06 00:46:11;;;;;;;15.50;12.50;;;11.40;99.90;;;;;;5056094;28;20455;-77
2023/05/06 00:48:38;;;;;;;18.23;13.50;;;11.40;99.90;;;;;;5064349;28;20456;-78
2023/05/06 00:51:05;;;;;;;17.73;13.33;;;11.40;99.90;;;;;;5056011;28;20451;-81
2023/05/06 00:53:33;;;;;;;19.80;13.27;;;11.40;99.90;;;;;;5055038;28;20478;-78
2023/05/06 00:56:00;;;;;;;16.23;12.33;;;11.40;99.90;;;;;;5055924;28;20957;-77
2023/05/06 00:58:27;;;;;;;17.63;12.43;;;11.40;99.90;;;;;;5059844;28;20458;-80
2023/05/06 01:00:55;;;;;;;15.70;13.60;;;11.40;99.90;;;;;;5056981;28;20459;-79
2023/05/06 01:03:22;;;;;;;17.50;13.03;;;11.40;99.90;;;;;;5058861;28;20486;-80
2023/05/06 01:05:59;;;;;;;16.73;13.10;;;11.40;99.90;;;;;;5066255;28;20455;-78
2023/05/06 01:08:32;;;;;;;20.33;14.13;;;11.40;99.90;;;;;;5059648;28;20455;-80
2023/05/06 01:11:09;;;;;;;18.23;14.00;;;11.40;99.90;;;;;;5056730;28;20450;-77
2023/05/06 01:13:46;;;;;;;15.77;13.30;;;11.40;99.90;;;;;;5059780;28;21007;-77
2023/05/06 01:16:15;;;;;;;19.07;13.33;;;11.40;99.90;;;;;;5062631;28;20458;-77
2023/05/06 01:18:44;;;;;;;17.30;13.57;;;11.50;99.90;;;;;;5060315;28;20449;-79
2023/05/06 01:21:12;;;;;;;19.30;14.50;;;11.50;99.90;;;;;;5054591;28;20494;-78
2023/05/06 01:23:54;;;;;;;15.10;12.27;;;11.50;99.90;;;;;;5058567;28;20489;-78
2023/05/06 01:26:21;;;;;;;25.23;17.80;;;11.40;99.90;;;;;;5062956;28;20826;-79
2023/05/06 01:28:48;;;;;;;18.90;14.67;;;11.50;99.90;;;;;;5065766;28;20486;-79
2023/05/06 01:31:23;;;;;;;20.10;15.70;;;11.50;99.90;;;;;;5039451;28;20859;-79
2023/05/06 01:34:00;;;;;;;21.53;14.13;;;11.40;99.90;;;;;;5064557;28;20472;-78
2023/05/06 01:36:32;;;;;;;18.17;14.13;;;11.40;99.90;;;;;;5056525;28;20457;-79
2023/05/06 01:39:08;;;;;;;20.17;15.17;;;11.30;99.90;;;;;;5062124;28;20445;-80
2023/05/06 01:41:37;;;;;;;18.20;14.47;;;11.30;99.90;;;;;;5062260;28;20454;-79
2023/05/06 01:44:06;;;;;;;16.80;12.90;;;11.30;99.90;;;;;;5061179;28;20477;-79
2023/05/06 01:46:34;;;;;;;19.23;15.00;;;11.20;99.90;;;;;;5057376;28;20458;-80
2023/05/06 01:49:04;;;;;;;19.83;15.20;;;11.20;99.90;;;;;;5053803;28;20494;-79
2023/05/06 01:51:32;;;;;;;19.97;14.43;;;11.10;99.90;;;;;;5065542;28;20451;-82
2023/05/06 01:54:01;;;;;;;21.23;15.00;;;11.10;99.90;;;;;;5053977;28;20470;-80
2023/05/06 01:56:29;;;;;;;21.50;14.00;;;11.00;99.90;;;;;;5053340;28;20553;-80
2023/05/06 01:58:56;;;;;;;19.30;15.47;;;11.00;99.90;;;;;;5054166;28;20485;-80
2023/05/06 02:01:22;;;;;;;18.23;14.57;;;11.00;99.90;;;;;;5062522;28;20460;-79
2023/05/06 02:03:49;;;;;;;17.80;13.10;;;11.00;99.90;;;;;;5053519;28;20480;-78
2023/05/06 02:06:16;;;;;;;25.93;13.63;;;11.00;99.90;;;;;;5060226;28;20451;-79
2023/05/06 02:08:43;;;;;;;18.53;14.30;;;10.90;99.90;;;;;;5053920;28;20497;-79
2023/05/06 02:11:11;;;;;;;19.03;14.23;;;10.90;99.90;;;;;;5060305;28;20485;-80
2023/05/06 02:13:38;;;;;;;18.70;14.47;;;10.90;99.90;;;;;;5054544;28;20466;-80
2023/05/06 02:16:05;;;;;;;17.13;12.80;;;10.80;99.90;;;;;;5059927;28;20453;-78
2023/05/06 02:18:32;;;;;;;18.60;14.67;;;10.80;99.90;;;;;;5056030;28;20456;-78
2023/05/06 02:20:59;;;;;;;20.47;14.60;;;10.80;99.90;;;;;;5053183;28;20462;-77
2023/05/06 02:23:26;;;;;;;23.40;15.77;;;10.80;99.90;;;;;;5052818;28;20481;-79
2023/05/06 02:25:53;;;;;;;20.30;13.30;;;10.80;99.90;;;;;;5059319;28;20460;-78
2023/05/06 02:28:21;;;;;;;18.77;14.57;;;10.70;99.90;;;;;;5055923;28;20834;-77
2023/05/06 02:30:48;;;;;;;18.50;14.00;;;10.70;99.90;;;;;;5052696;28;20490;-78
2023/05/06 02:33:15;;;;;;;21.00;14.67;;;10.70;99.90;;;;;;5063166;28;21034;-80
2023/05/06 02:35:41;;;;;;;21.77;15.67;;;10.70;99.90;;;;;;5053348;28;20479;-77
2023/05/06 02:38:08;;;;;;;19.33;15.03;;;10.70;99.90;;;;;;5054795;28;20464;-80
2023/05/06 02:40:35;;;;;;;20.00;14.37;;;10.60;99.90;;;;;;5054724;28;20444;-81
2023/05/06 02:43:02;;;;;;;20.33;14.23;;;10.60;99.90;;;;;;5054875;28;20484;-79
2023/05/06 02:45:30;;;;;;;20.27;14.50;;;10.60;99.90;;;;;;5054161;28;21031;-79
2023/05/06 02:47:57;;;;;;;22.60;14.50;;;10.60;99.90;;;;;;5063362;28;20449;-78
2023/05/06 02:50:24;;;;;;;22.50;16.40;;;10.60;99.90;;;;;;5054247;28;20483;-80
2023/05/06 02:52:51;;;;;;;22.80;14.60;;;10.50;99.90;;;;;;5055291;28;20488;-77
2023/05/06 02:55:18;;;;;;;22.80;15.67;;;10.50;99.90;;;;;;5053513;28;20451;-79
2023/05/06 02:57:45;;;;;;;21.53;15.00;;;10.50;99.90;;;;;;5070923;28;20487;-77
2023/05/06 03:00:14;;;;;;;17.97;13.57;;;10.50;99.90;;;;;;5064398;28;20463;-81
2023/05/06 03:02:42;;;;;;;19.60;13.40;;;10.50;99.90;;;;;;5057474;28;20710;-78
2023/05/06 03:05:09;;;;;;;16.20;12.20;;;10.40;99.90;;;;;;5036987;28;20464;-78
2023/05/06 03:07:37;;;;;;;19.30;13.57;;;10.40;99.90;;;;;;5053640;28;20455;-80
2023/05/06 03:10:04;;;;;;;20.10;13.97;;;10.40;99.90;;;;;;5054351;28;20482;-77
2023/05/06 03:12:31;;;;;;;19.90;15.70;;;10.30;99.90;;;;;;5057609;28;20498;-79
2023/05/06 03:14:58;;;;;;;20.40;14.27;;;10.30;99.90;;;;;;5053353;28;20434;-80
2023/05/06 03:17:25;;;;;;;20.50;13.50;;;10.30;99.90;;;;;;5067776;28;20451;-80
2023/05/06 03:19:53;;;;;;;17.00;13.63;;;10.30;99.90;;;;;;5072216;28;20522;-79
2023/05/06 03:22:19;;;;;;;20.03;13.60;;;10.30;99.90;;;;;;5054966;28;20460;-79
2023/05/06 03:24:46;;;;;;;20.63;14.47;;;10.20;99.90;;;;;;5052911;28;20466;-78
2023/05/06 03:27:13;;;;;;;21.20;15.37;;;10.20;99.90;;;;;;5053902;28;20982;-78
2023/05/06 03:29:40;;;;;;;21.60;15.13;;;10.20;99.90;;;;;;5052847;28;20495;-78
2023/05/06 03:32:07;;;;;;;24.50;14.63;;;10.20;99.90;;;;;;5053253;28;20451;-78
2023/05/06 03:34:33;;;;;;;19.90;14.40;;;10.20;99.90;;;;;;5052734;28;20464;-79
2023/05/06 03:37:03;;;;;;;22.37;14.40;;;10.20;99.90;;;;;;5067261;28;20451;-79
2023/05/06 03:39:29;;;;;;;20.30;14.60;;;10.10;99.90;;;;;;5052565;28;20460;-80
2023/05/06 03:41:57;;;;;;;19.10;13.97;;;10.10;99.90;;;;;;5051478;28;20455;-78
2023/05/06 03:44:23;;;;;;;20.17;13.77;;;10.10;99.90;;;;;;5052282;28;20477;-80
2023/05/06 03:46:50;;;;;;;19.17;13.63;;;10.10;99.90;;;;;;5066718;28;20479;-77
2023/05/06 03:49:17;;;;;;;21.47;14.87;;;10.10;99.90;;;;;;5072840;28;20456;-77
2023/05/06 03:51:44;;;;;;;18.40;14.03;;;10.10;99.90;;;;;;5066126;28;20483;-80
2023/05/06 03:54:12;;;;;;;20.63;15.60;;;10.00;99.90;;;;;;5052628;28;20469;-77
2023/05/06 03:56:39;;;;;;;18.50;14.03;;;10.00;99.90;;;;;;5055275;28;20456;-77
2023/05/06 03:59:05;;;;;;;23.60;14.03;;;10.00;99.90;;;;;;5052633;28;20440;-77
2023/05/06 04:01:32;;;;;;;19.90;14.43;;;10.00;99.90;;;;;;5051842;28;20451;-79
2023/05/06 04:03:59;;;;;;;17.80;13.20;;;10.10;99.90;;;;;;5052097;28;20843;-78
2023/05/06 04:06:26;;;;;;;20.77;14.87;;;10.00;99.90;;;;;;5055588;28;21032;-78
2023/05/06 04:08:53;;;;;;;19.00;13.67;;;10.00;99.90;;;;;;5052256;28;20486;-79
2023/05/06 04:11:21;;;;;;;20.63;14.30;;;10.00;99.90;;;;;;5054803;28;20567;-79
2023/05/06 04:13:47;;;;;;;20.30;13.77;;;10.00;99.90;;;;;;5051341;28;20479;-77
2023/05/06 04:16:14;;;;;;;20.20;13.83;;;10.00;99.90;;;;;;5054081;28;20834;-78
2023/05/06 04:18:42;;;;;;;20.00;13.90;;;10.10;99.90;;;;;;5052767;28;20461;-80
2023/05/06 04:21:10;;;;;;;20.20;13.40;;;10.10;99.90;;;;;;5052891;28;20459;-79
2023/05/06 04:23:37;;;;;;;18.40;13.37;;;10.10;99.90;;;;;;5052742;28;20491;-78
2023/05/06 04:26:04;;;;;;;18.17;13.97;;;10.10;99.90;;;;;;5055382;28;20481;-80
2023/05/06 04:28:32;;;;;;;21.87;13.67;;;10.20;99.90;;;;;;5036208;28;20457;-77
2023/05/06 04:31:01;;;;;;;18.87;14.47;;;10.20;99.90;;;;;;5042405;28;20498;-84
2023/05/06 04:33:28;;;;;;;19.93;14.53;;;10.20;99.90;;;;;;5061213;28;20479;-79
2023/05/06 04:35:56;;;;;;;20.33;14.27;;;10.20;99.90;;;;;;5063888;28;20536;-78
2023/05/06 04:38:24;;;;;;;22.00;14.20;;;10.20;99.90;;;;;;5062163;28;21021;-79
2023/05/06 04:40:51;;;;;;;17.37;13.30;;;10.30;99.90;;;;;;5060023;28;20465;-78
2023/05/06 04:43:18;;;;;;;20.97;14.10;;;10.30;99.90;;;;;;5051547;28;20472;-81
2023/05/06 04:45:48;;;;;;;22.43;14.23;;;10.40;99.90;;;;;;5058004;28;20548;-77
2023/05/06 04:48:17;;;;;;;18.17;14.50;;;10.40;99.90;;;;;;5052288;28;20456;-77
2023/05/06 04:50:44;;;;;;;22.67;16.30;;;10.50;99.90;;;;;;5057140;28;21076;-77
2023/05/06 04:53:11;;;;;;;19.10;12.93;;;10.50;99.90;;;;;;5051398;28;20999;-78
2023/05/06 04:55:37;;;;;;;21.23;13.80;;;10.50;99.90;;;;;;5060932;28;20455;-78
2023/05/06 04:58:04;;;;;;;21.10;13.60;;;10.60;99.90;;;;;;5051765;28;20565;-78
2023/05/06 05:00:31;;;;;;;18.57;13.77;;;10.60;99.90;;;;;;5054502;28;20463;-78
2023/05/06 05:03:00;;;;;;;17.73;14.10;;;10.70;99.90;;;;;;5051419;28;20494;-78
2023/05/06 05:05:28;;;;;;;17.30;13.20;;;10.80;99.90;;;;;;5054779;28;20464;-79
2023/05/06 05:07:55;;;;;;;17.40;13.17;;;10.80;99.90;;;;;;5052281;28;20450;-81
2023/05/06 05:10:22;;;;;;;15.07;12.80;;;10.90;99.90;;;;;;5057895;28;20485;-78
2023/05/06 05:12:48;;;;;;;18.43;12.77;;;10.90;99.90;;;;;;5054785;28;20478;-78
2023/05/06 05:15:15;;;;;;;17.33;12.27;;;11.00;99.90;;;;;;5066345;28;20455;-80
2023/05/06 05:17:42;;;;;;;17.73;11.80;;;11.00;99.90;;;;;;5055111;28;20475;-77
2023/05/06 05:20:11;;;;;;;16.37;12.33;;;11.10;99.90;;;;;;5065998;28;20476;-80
2023/05/06 05:22:38;;;;;;;16.07;11.93;;;11.10;99.90;;;;;;5054897;28;20473;-80
2023/05/06 05:25:06;;;;;;;16.63;11.83;;;11.20;99.90;;;;;;5065181;28;20490;-77
2023/05/06 05:27:32;;;;;;;16.90;12.60;;;11.30;99.90;;;;;;5058891;28;20452;-79
2023/05/06 05:30:00;;;;;;;15.83;11.27;;;11.40;99.90;;;;;;5056406;28;20458;-78
2023/05/06 05:32:27;;;;;;;18.93;12.90;;;11.40;99.90;;;;;;5054869;28;20458;-79
2023/05/06 05:37:24;;;;;;;18.03;13.33;;;11.50;99.90;;;;;;5071626;28;20471;-82
2023/05/06 05:39:51;;;;;;;15.80;11.57;;;11.60;99.90;;;;;;5078116;28;20452;-81
2023/05/06 05:42:18;;;;;;;14.50;10.77;;;11.70;99.90;;;;;;5078575;28;20450;-84
2023/05/06 05:44:45;;;;;;;19.67;13.00;;;11.70;99.90;;;;;;5079060;28;20515;-83
2023/05/06 05:47:12;;;;;;;19.33;12.97;;;11.80;99.90;;;;;;5058291;28;21130;-83
2023/05/06 05:49:39;;;;;;;16.60;12.43;;;11.90;99.90;;;;;;5057759;28;20542;-85
2023/05/06 05:52:07;;;;;;;14.43;11.70;;;11.90;99.90;;;;;;5058110;28;20479;-84
2023/05/06 05:54:35;;;;;;;20.00;14.83;;;12.00;99.90;;;;;;5060246;28;20508;-84
2023/05/06 05:57:02;;;;;;;15.90;12.23;;;12.10;99.90;;;;;;5059896;28;20479;-84
2023/05/06 05:59:29;;;;;;;17.87;13.57;;;12.10;99.90;;;;;;5059080;28;20508;-83
2023/05/06 06:01:56;;;;;;;17.20;12.90;;;12.20;99.90;;;;;;5059529;28;20496;-83
2023/05/06 06:04:23;;;;;;;22.70;16.20;;;12.20;99.90;;;;;;5058629;28;20463;-83
2023/05/06 06:06:50;;;;;;;21.70;15.20;;;12.30;99.90;;;;;;5058307;28;21082;-82
2023/05/06 06:09:16;;;;;;;21.30;15.40;;;12.30;99.90;;;;;;5058374;28;20526;-82
2023/05/06 06:11:45;;;;;;;20.00;15.17;;;12.40;99.90;;;;;;5058349;28;20559;-82
2023/05/06 06:14:11;;;;;;;20.17;13.73;;;12.40;99.90;;;;;;5057316;28;20487;-82
2023/05/06 06:16:38;;;;;;;16.83;12.97;;;12.50;99.90;;;;;;5058129;28;20478;-83
2023/05/06 06:19:05;;;;;;;18.03;13.50;;;12.60;99.90;;;;;;5058392;28;20534;-83
2023/05/06 06:21:32;;;;;;;16.57;14.20;;;12.80;99.90;;;;;;5058116;28;20447;-82
2023/05/06 06:23:59;;;;;;;16.00;13.37;;;12.90;99.90;;;;;;5058530;28;20495;-83
2023/05/06 06:26:26;;;;;;;20.80;15.30;;;13.00;99.90;;;;;;5059145;28;20474;-82
2023/05/06 06:28:54;;;;;;;17.57;13.70;;;13.00;99.90;;;;;;5059737;28;21019;-81
2023/05/06 06:31:23;;;;;;;18.97;13.90;;;13.10;99.90;;;;;;5074941;28;20519;-81
2023/05/06 06:33:50;;;;;;;20.40;15.07;;;13.10;99.90;;;;;;5070189;28;20450;-80
2023/05/06 06:36:17;;;;;;;22.90;14.73;;;13.10;99.90;;;;;;5068804;28;20595;-82
2023/05/06 06:38:44;;;;;;;17.37;13.27;;;13.20;99.90;;;;;;5059306;28;20458;-82
2023/05/06 06:41:10;;;;;;;18.33;13.40;;;13.20;99.90;;;;;;5058183;28;20516;-81
2023/05/06 06:43:37;;;;;;;17.47;13.93;;;13.20;99.90;;;;;;5059947;28;20510;-80
2023/05/06 06:46:05;;;;;;;19.37;14.90;;;13.30;99.90;;;;;;5071587;28;20925;-82
2023/05/06 06:48:32;;;;;;;22.20;15.80;;;13.40;99.90;;;;;;5057630;28;20453;-81
2023/05/06 06:50:59;;;;;;;17.63;14.20;;;13.40;99.90;;;;;;5057796;28;20489;-81
2023/05/06 06:53:26;;;;;;;15.83;14.00;;;13.50;99.90;;;;;;5057205;28;20530;-81
2023/05/06 06:55:53;;;;;;;18.73;15.37;;;13.50;99.90;;;;;;5045969;28;20474;-82
2023/05/06 06:58:19;;;;;;;22.27;15.77;;;13.70;99.90;;;;;;5048516;28;20445;-81
2023/05/06 07:00:46;;;;;;;18.77;14.40;;;13.80;99.90;;;;;;5055160;28;20455;-81
2023/05/06 07:03:18;;;;;;;15.60;13.63;;;13.80;99.90;;;;;;5056861;28;20445;-82
2023/05/06 07:05:44;;;;;;;16.87;14.30;;;14.00;99.90;;;;;;5051279;28;20481;-80
2023/05/06 07:08:11;;;;;;;15.97;12.80;;;14.00;99.90;;;;;;5047064;28;20464;-81
2023/05/06 07:10:38;;;;;;;17.33;13.30;;;14.10;99.90;;;;;;5057512;28;20494;-82
2023/05/06 07:13:05;;;;;;;16.77;14.00;;;14.20;99.90;;;;;;5057655;28;20449;-82
2023/05/06 07:15:32;;;;;;;16.23;13.93;;;14.30;99.90;;;;;;5058571;28;21048;-81
2023/05/06 07:17:58;;;;;;;17.47;14.30;;;14.50;99.90;;;;;;5052996;28;20453;-82
2023/05/06 07:20:26;;;;;;;18.70;13.13;;;14.60;99.90;;;;;;5044077;28;20459;-81
2023/05/06 07:22:53;;;;;;;17.87;12.73;;;14.70;99.90;;;;;;5058297;28;20467;-81
2023/05/06 07:25:20;;;;;;;16.03;11.83;;;14.90;99.90;;;;;;5071614;28;20926;-83
2023/05/06 07:27:47;;;;;;;18.80;12.87;;;15.00;99.90;;;;;;5062909;28;20433;-81
2023/05/06 07:30:14;;;;;;;14.37;11.93;;;15.00;99.90;;;;;;5074888;28;20471;-82
2023/05/06 07:32:42;;;;;;;20.90;12.80;;;15.10;99.90;;;;;;5071021;28;20563;-81
2023/05/06 07:35:09;;;;;;;13.67;11.20;;;15.30;99.90;;;;;;5062491;28;20466;-83
2023/05/06 07:37:37;;;;;;;14.70;11.93;;;15.50;99.90;;;;;;5076425;28;20443;-83
2023/05/06 07:40:05;;;;;;;12.63;10.53;;;15.40;99.90;;;;;;5076062;28;20531;-81
2023/05/06 07:42:32;;;;;;;11.30;10.00;;;15.50;99.90;;;;;;5075059;28;20446;-81
2023/05/06 07:44:59;;;;;;;13.30;11.30;;;15.60;99.90;;;;;;5076648;28;20448;-82
2023/05/06 07:47:28;;;;;;;14.47;9.97;;;15.70;99.90;;;;;;5076998;28;20446;-81
2023/05/06 07:49:55;;;;;;;12.93;10.07;;;15.80;99.90;;;;;;5077184;28;20547;-82
2023/05/06 07:52:22;;;;;;;11.13;9.03;;;15.80;99.90;;;;;;5076712;28;20539;-79
2023/05/06 07:54:51;;;;;;;11.40;9.57;;;15.90;99.90;;;;;;5076877;28;20447;-84
2023/05/06 07:57:17;;;;;;;15.03;10.13;;;16.00;99.90;;;;;;5076027;28;20446;-83
2023/05/06 07:59:47;;;;;;;12.60;9.97;;;16.20;99.90;;;;;;5076402;28;20979;-82
2023/05/06 08:02:15;;;;;;;12.23;9.63;;;16.40;99.90;;;;;;5076705;28;20503;-81
2023/05/06 08:04:41;;;;;;;10.10;7.93;;;16.50;99.90;;;;;;5076214;28;20729;-83
2023/05/06 08:07:08;;;;;;;9.80;8.43;;;16.70;99.90;;;;;;5076236;28;20449;-83
2023/05/06 08:09:35;;;;;;;11.47;7.93;;;16.80;99.90;;;;;;5077344;28;20448;-84
2023/05/06 08:12:04;;;;;;;10.70;8.40;;;17.00;99.90;;;;;;5063817;28;20552;-83
2023/05/06 08:14:31;;;;;;;8.43;6.60;;;17.30;99.90;;;;;;5063239;28;20881;-85
2023/05/06 08:16:57;;;;;;;8.47;7.67;;;17.60;96.00;;;;;;5063762;28;20474;-84
2023/05/06 08:19:25;;;;;;;10.20;7.10;;;18.00;99.90;;;;;;5062448;28;20452;-84
2023/05/06 08:21:53;;;;;;;8.63;6.90;;;18.60;14.80;;;;;;5064600;28;20548;-84
2023/05/06 08:24:20;;;;;;;8.00;6.27;;;19.30;1.00;;;;;;5064064;28;20526;-83
2023/05/06 08:26:47;;;;;;;8.07;5.87;;;19.70;99.90;;;;;;5072696;28;20477;-82
2023/05/06 08:29:15;;;;;;;6.43;4.20;;;19.40;99.90;;;;;;5074150;28;20467;-80
2023/05/06 08:31:42;;;;;;;4.10;3.10;;;21.10;1.00;;;;;;5076448;28;20552;-81
2023/05/06 08:34:09;;;;;;;4.30;3.60;;;23.60;47.90;;;;;;5076207;28;20516;-80
2023/05/06 08:36:36;;;;;;;4.23;3.20;;;25.30;1.00;;;;;;5073076;28;20548;-82
2023/05/06 08:39:03;;;;;;;5.07;3.60;;;27.20;1.00;;;;;;5056099;28;20437;-83
2023/05/06 08:41:31;;;;;;;3.70;2.53;;;28.30;1.00;;;;;;5055962;28;20467;-84
2023/05/06 08:44:00;;;;;;;5.43;3.53;;;30.20;1.00;;;;;;5058427;28;20459;-82
2023/05/06 08:46:29;;;;;;;4.20;2.93;;;31.30;1.00;;;;;;5077315;28;20534;-82
2023/05/06 08:48:56;;;;;;;6.17;2.60;;;32.20;1.00;;;;;;5079535;28;20434;-82
2023/05/06 08:51:27;;;;;;;5.40;2.00;;;32.70;1.00;;;;;;5075036;28;20490;-82
2023/05/06 08:53:55;;;;;;;3.07;2.10;;;33.20;1.00;;;;;;5073574;28;20535;-84
2023/05/06 08:56:27;;;;;;;4.53;2.80;;;32.90;1.00;;;;;;5076266;28;20507;-82
2023/05/06 08:58:55;;;;;;;3.63;2.30;;;32.80;1.00;;;;;;5070780;28;20554;-83
2023/05/06 09:01:22;;;;;;;3.23;2.17;;;31.00;99.90;;;;;;5067888;28;20482;-83
2023/05/06 09:03:51;;;;;;;4.20;2.60;;;31.20;99.90;;;;;;5064348;28;20803;-82
2023/05/06 09:06:20;;;;;;;4.17;2.40;;;32.20;99.90;;;;;;5063655;28;20844;-83
2023/05/06 09:08:46;;;;;;;3.40;2.07;;;32.60;99.90;;;;;;5063871;28;20451;-82
2023/05/06 09:11:21;;;;;;;2.70;2.10;;;30.80;99.90;;;;;;5064160;28;20451;-82
2023/05/06 09:13:48;;;;;;;3.60;2.20;;;29.10;99.90;;;;;;5063069;28;20443;-81
2023/05/06 09:16:28;;;;;;;2.93;1.97;;;28.40;99.90;;;;;;5062864;28;20472;-83
2023/05/06 09:18:56;;;;;;;2.60;1.83;;;28.40;99.90;;;;;;5062129;28;20450;-82
2023/05/06 09:21:31;;;;;;;3.57;2.23;;;27.80;99.90;;;;;;5062233;28;20539;-82
2023/05/06 09:23:59;;;;;;;2.90;2.30;;;28.20;99.90;;;;;;5062733;28;20809;-82
2023/05/06 09:26:27;;;;;;;3.20;2.60;;;28.70;99.90;;;;;;5061835;28;20535;-82
2023/05/06 09:28:54;;;;;;;3.40;1.97;;;29.50;99.90;;;;;;5064022;28;20444;-82
2023/05/06 09:31:21;;;;;;;2.80;1.60;;;30.70;99.90;;;;;;5069823;28;20452;-80
2023/05/06 09:33:49;;;;;;;2.87;1.47;;;31.40;99.90;;;;;;5069105;28;20550;-80
2023/05/06 09:36:17;;;;;;;2.53;1.50;;;32.40;99.90;;;;;;5067671;28;20475;-80
2023/05/06 09:38:44;;;;;;;3.77;1.70;;;32.70;99.90;;;;;;5067220;28;20479;-81
2023/05/06 09:41:12;;;;;;;3.00;1.60;;;33.10;99.90;;;;;;5059614;28;20538;-81
2023/05/06 09:43:40;;;;;;;3.00;1.80;;;32.70;99.90;;;;;;5064438;28;20512;-81
2023/05/06 09:46:08;;;;;;;3.00;1.30;;;32.30;99.90;;;;;;5065064;28;20472;-82
2023/05/06 09:48:36;;;;;;;3.60;1.30;;;33.40;99.90;;;;;;5065261;28;20466;-80
2023/05/06 09:51:04;;;;;;;2.20;1.23;;;34.60;99.90;;;;;;5063603;28;20896;-82
2023/05/06 09:53:34;;;;;;;2.80;1.33;;;34.10;99.90;;;;;;5061964;28;20487;-82
2023/05/06 09:56:01;;;;;;;2.10;1.23;;;33.50;99.90;;;;;;5063142;28;20468;-82
2023/05/06 09:58:30;;;;;;;3.83;1.47;;;33.70;99.90;;;;;;5064089;28;20452;-82
2023/05/06 10:00:57;;;;;;;2.33;1.47;;;33.60;99.90;;;;;;5063219;28;20452;-82
2023/05/06 10:03:26;;;;;;;2.53;1.20;;;34.30;99.90;;;;;;5062875;28;20450;-81
2023/05/06 10:05:58;;;;;;;3.80;1.30;;;35.00;99.90;;;;;;5062720;28;20471;-83
2023/05/06 10:08:25;;;;;;;2.57;1.53;;;35.80;99.90;;;;;;5069690;28;20504;-83
2023/05/06 10:10:54;;;;;;;3.27;1.33;;;36.30;99.90;;;;;;5073406;28;20450;-80
2023/05/06 10:13:23;;;;;;;2.03;1.30;;;36.30;99.90;;;;;;5073804;28;20483;-83
2023/05/06 10:15:53;;;;;;;2.80;1.90;;;36.20;99.90;;;;;;5062282;28;21239;-83
2023/05/06 10:18:21;;;;;;;3.80;1.10;;;36.40;99.90;;;;;;5061998;28;20452;-82
2023/05/06 10:20:50;;;;;;;5.17;1.20;;;36.30;99.90;;;;;;5060972;28;20547;-83
2023/05/06 10:23:23;;;;;;;3.40;1.40;;;35.10;99.90;;;;;;5060756;28;20519;-84
2023/05/06 10:25:56;;;;;;;3.00;1.50;;;33.80;99.90;;;;;;5042244;28;20559;-83
2023/05/06 10:28:27;;;;;;;3.43;1.30;;;32.60;99.90;;;;;;5051198;28;20466;-84
2023/05/06 10:30:56;;;;;;;2.87;1.30;;;32.40;99.90;;;;;;5061001;28;20460;-84
2023/05/06 10:33:25;;;;;;;2.47;1.10;;;33.00;99.90;;;;;;5061819;28;20482;-83
2023/05/06 10:35:58;;;;;;;2.10;1.20;;;33.80;99.90;;;;;;5060150;28;20490;-84
2023/05/06 10:38:30;;;;;;;3.80;1.33;;;34.80;99.90;;;;;;5061675;28;21003;-84
2023/05/06 10:41:00;;;;;;;4.43;1.30;;;35.30;99.90;;;;;;5062638;28;20960;-84
2023/05/06 10:43:29;;;;;;;3.60;1.10;;;35.20;99.90;;;;;;5061258;28;20543;-84
2023/05/06 10:46:07;;;;;;;2.63;1.30;;;35.60;99.90;;;;;;5062583;28;20502;-82
2023/05/06 10:48:35;;;;;;;2.53;1.10;;;35.90;99.90;;;;;;5062282;28;20483;-81
2023/05/06 10:51:25;;;;;;;2.27;0.90;;;36.50;99.90;;;;;;5062518;28;20448;-83
2023/05/06 10:54:05;;;;;;;4.03;1.20;;;37.40;99.90;;;;;;5061320;28;20480;-82
2023/05/06 10:56:35;;;;;;;1.70;0.97;;;37.80;99.90;;;;;;5062963;28;20480;-84
2023/05/06 10:59:06;;;;;;;2.17;0.90;;;38.20;99.90;;;;;;5063404;28;20451;-82
2023/05/06 11:01:33;;;;;;;2.00;0.90;;;38.00;99.90;;;;;;5063687;28;20462;-83
2023/05/06 11:04:08;;;;;;;2.67;1.00;;;37.80;99.90;;;;;;5064369;28;20483;-83
2023/05/06 11:06:37;;;;;;;3.10;1.60;;;38.60;99.90;;;;;;5066546;28;20550;-80
2023/05/06 11:09:08;;;;;;;20.57;18.47;;;39.00;99.90;;;;;;5075852;28;20503;-82
2023/05/06 11:11:50;;;;;;;55.50;50.10;;;37.50;99.90;;;;;;5062462;28;20444;-83
2023/05/06 11:14:26;;;;;;;5.63;4.73;;;35.10;99.90;;;;;;5042106;28;20494;-81
2023/05/06 11:16:57;;;;;;;45.27;36.23;;;33.80;99.90;;;;;;5055047;28;20471;-82
2023/05/06 11:19:26;;;;;;;10.30;9.20;;;32.00;99.90;;;;;;5058694;28;20455;-82
2023/05/06 11:21:59;;;;;;;191.90;171.10;;;30.10;99.90;;;;;;5058209;28;20452;-81
2023/05/06 11:24:28;;;;;;;72.83;66.00;;;29.00;99.90;;;;;;5058161;28;20455;-83
2023/05/06 11:27:05;;;;;;;5.17;4.67;;;28.20;99.90;;;;;;5057907;28;20529;-81
2023/05/06 11:29:32;;;;;;;2.13;1.23;;;28.70;99.90;;;;;;5058385;28;20444;-83
2023/05/06 11:32:02;;;;;;;2.87;2.20;;;30.80;99.90;;;;;;5057708;28;20448;-83
2023/05/06 11:34:34;;;;;;;2.43;1.30;;;30.90;99.90;;;;;;5058841;28;20527;-83
2023/05/06 11:37:03;;;;;;;2.93;1.23;;;30.70;99.90;;;;;;5057848;28;20602;-82
2023/05/06 11:39:32;;;;;;;2.00;0.90;;;30.30;99.90;;;;;;5058430;28;20494;-82
2023/05/06 11:42:03;;;;;;;2.23;1.27;;;29.30;99.90;;;;;;5057186;28;20455;-82
2023/05/06 11:44:35;;;;;;;2.20;1.20;;;28.80;99.90;;;;;;5057734;28;20452;-83
2023/05/06 11:47:06;;;;;;;1.67;0.87;;;26.80;99.90;;;;;;5056711;28;20528;-83
2023/05/06 11:49:43;;;;;;;4.00;0.80;;;26.70;99.90;;;;;;5057440;28;20484;-82
2023/05/06 11:52:13;;;;;;;2.20;0.97;;;26.60;99.90;;;;;;5059353;28;20528;-83
2023/05/06 11:54:41;;;;;;;4.53;1.50;;;27.60;99.90;;;;;;5058145;28;20554;-83
2023/05/06 11:57:16;;;;;;;1.97;0.90;;;30.80;99.90;;;;;;5058736;28;20474;-83
2023/05/06 11:59:43;;;;;;;1.93;0.83;;;34.00;99.90;;;;;;5057834;28;20462;-82
2023/05/06 12:02:16;;;;;;;2.57;1.03;;;36.10;99.90;;;;;;5059515;28;20436;-82
2023/05/06 12:04:45;;;;;;;1.80;0.90;;;37.80;99.90;;;;;;5058281;28;20540;-83
2023/05/06 12:07:16;;;;;;;1.80;0.90;;;39.10;99.90;;;;;;5057619;28;20546;-81
2023/05/06 12:09:47;;;;;;;2.17;1.20;;;39.20;99.90;;;;;;5057545;28;20452;-84
2023/05/06 12:12:21;;;;;;;2.30;1.13;;;39.10;99.90;;;;;;5057759;28;20478;-83
2023/05/06 12:14:50;;;;;;;2.37;1.27;;;39.90;99.90;;;;;;5058376;28;21058;-84
2023/05/06 12:17:17;;;;;;;2.13;0.90;;;40.80;99.90;;;;;;5057437;28;20907;-83
2023/05/06 12:19:49;;;;;;;2.50;1.10;;;42.20;99.90;;;;;;5058243;28;20452;-82
2023/05/06 12:22:18;;;;;;;4.43;1.23;;;41.90;99.90;;;;;;5058072;28;20448;-82
2023/05/06 12:24:49;;;;;;;2.60;1.10;;;41.20;99.90;;;;;;5056846;28;20810;-82
2023/05/06 12:27:30;;;;;;;2.10;0.80;;;40.90;99.90;;;;;;5056624;28;20558;-84
2023/05/06 12:29:57;;;;;;;1.90;1.07;;;39.30;99.90;;;;;;5064834;22;20504;-83
2023/05/06 12:32:24;;;;;;;2.57;1.30;;;38.70;99.90;;;;;;5035268;28;20452;-84
2023/05/06 12:34:51;;;;;;;2.50;1.00;;;38.00;99.90;;;;;;5036138;28;20445;-82
2023/05/06 12:37:25;;;;;;;2.53;1.30;;;37.20;99.90;;;;;;5033489;28;20460;-80
2023/05/06 12:39:52;;;;;;;3.13;1.00;;;37.20;99.90;;;;;;5036054;28;20477;-81
2023/05/06 12:42:20;;;;;;;2.77;1.07;;;36.60;99.90;;;;;;5036028;28;20457;-81